Time;durP1;ratioP1;P1;durP2;ratioP2;P2;SDS_P1;SDS_P2;PMS_P1;PMS_P2;Temp;Humidity;BMP_temperature;BMP_pressure;BME280_temperature;BME280_humidity;BME280_pressure;Samples;Min_cycle;Max_cycle;Signal;HPM_P1;HPM_P2
2022/02/06 00:02:17;;;;;;;4.97;2.13;;;;;;;;;;5067342;28;20241;-74
2022/02/06 00:04:46;;;;;;;3.78;1.70;;;;;;;;;;5068992;28;20204;-73
2022/02/06 00:07:15;;;;;;;3.58;1.45;;;;;;;;;;5062236;28;20576;-74
2022/02/06 00:09:43;;;;;;;3.40;1.55;;;;;;;;;;5070194;28;20198;-74
2022/02/06 00:12:10;;;;;;;5.63;2.30;;;;;;;;;;5072842;28;20210;-74
2022/02/06 00:14:38;;;;;;;3.95;1.42;;;;;;;;;;5072394;28;20194;-74
2022/02/06 00:17:06;;;;;;;4.07;1.50;;;;;;;;;;5072974;28;20194;-73
2022/02/06 00:19:33;;;;;;;4.80;1.55;;;;;;;;;;5071747;28;20203;-74
2022/02/06 00:22:02;;;;;;;5.68;1.48;;;;;;;;;;5070046;28;20206;-74
2022/02/06 00:24:38;;;;;;;4.25;1.67;;;;;;;;;;5065853;28;20195;-73
2022/02/06 00:27:09;;;;;;;4.60;1.55;;;;;;;;;;5072270;28;20284;-74
2022/02/06 00:29:46;;;;;;;2.90;1.70;;;;;;;;;;5070619;28;20278;-73
2022/02/06 00:32:26;;;;;;;4.32;1.75;;;;;;;;;;5071262;28;20241;-73
2022/02/06 00:40:33;;;;;;;5.30;1.60;;;;;;;;;;5070380;28;20571;-73
2022/02/06 00:43:00;;;;;;;4.50;1.60;;;;;;;;;;5066160;28;20198;-72
2022/02/06 00:45:27;;;;;;;3.45;1.48;;;;;;;;;;5069576;28;20193;-73
2022/02/06 00:47:54;;;;;;;3.65;1.33;;;;;;;;;;5071888;28;20198;-73
2022/02/06 00:50:21;;;;;;;2.20;1.52;;;;;;;;;;5069511;28;20213;-73
2022/02/06 00:53:00;;;;;;;2.20;1.83;;;;;;;;;;5070455;28;20685;-73
2022/02/06 00:55:28;;;;;;;2.72;1.50;;;;;;;;;;5067875;28;20190;-73
2022/02/06 00:57:59;;;;;;;4.90;1.90;;;;;;;;;;5065467;28;20194;-73
2022/02/06 01:00:26;;;;;;;2.33;1.83;;;;;;;;;;5068123;28;20202;-73
2022/02/06 01:02:53;;;;;;;3.35;1.55;;;;;;;;;;5072326;28;20198;-73
2022/02/06 01:05:20;;;;;;;7.45;2.00;;;;;;;;;;5071440;28;20561;-74
2022/02/06 01:07:49;;;;;;;2.53;1.50;;;;;;;;;;5066881;28;20218;-74
2022/02/06 01:10:16;;;;;;;4.45;1.48;;;;;;;;;;5069851;28;20206;-73
2022/02/06 01:12:52;;;;;;;2.15;1.33;;;;;;;;;;5070120;28;20229;-73
2022/02/06 01:15:23;;;;;;;4.72;1.70;;;;;;;;;;5068726;28;20190;-73
2022/02/06 01:17:55;;;;;;;3.92;1.92;;;;;;;;;;5072788;28;20273;-73
2022/02/06 01:20:27;;;;;;;2.03;1.15;;;;;;;;;;5069679;28;20194;-73
2022/02/06 01:22:58;;;;;;;3.40;2.20;;;;;;;;;;5067905;28;20210;-73
2022/02/06 01:25:29;;;;;;;1.58;1.33;;;;;;;;;;5071248;28;20309;-73
2022/02/06 01:28:02;;;;;;;5.07;2.03;;;;;;;;;;5066700;28;20217;-73
2022/02/06 01:30:39;;;;;;;5.50;1.88;;;;;;;;;;5071427;28;20198;-73
2022/02/06 01:33:12;;;;;;;4.40;1.50;;;;;;;;;;5071759;28;20217;-73
2022/02/06 01:35:45;;;;;;;2.40;1.50;;;;;;;;;;5067814;28;20468;-73
2022/02/06 01:38:18;;;;;;;1.90;1.58;;;;;;;;;;5068143;28;20274;-73
2022/02/06 01:40:58;;;;;;;4.15;2.00;;;;;;;;;;5069636;28;20190;-73
2022/02/06 01:43:32;;;;;;;2.88;1.55;;;;;;;;;;5069005;28;20201;-73
2022/02/06 01:46:16;;;;;;;7.47;2.10;;;;;;;;;;5066693;28;20197;-73
2022/02/06 02:02:49;;;;;;;2.88;1.70;;;;;;;;;;5071478;28;20212;-73
2022/02/06 02:08:39;;;;;;;3.35;1.60;;;;;;;;;;4997084;28;20598;-73
2022/02/06 02:14:17;;;;;;;4.38;1.90;;;;;;;;;;5060075;28;20557;-73
2022/02/06 02:17:13;;;;;;;8.30;1.80;;;;;;;;;;5069816;28;20198;-73
2022/02/06 02:20:12;;;;;;;3.20;1.92;;;;;;;;;;5055675;28;20724;-74
2022/02/06 02:25:53;;;;;;;2.55;1.50;;;;;;;;;;5068287;28;20217;-73
2022/02/06 02:31:22;;;;;;;2.70;2.03;;;;;;;;;;5060425;28;20201;-73
2022/02/06 02:45:12;;;;;;;6.95;2.13;;;;;;;;;;5081194;28;20683;-73
2022/02/06 02:47:42;;;;;;;3.70;1.80;;;;;;;;;;5068903;28;20289;-73
2022/02/06 02:50:14;;;;;;;4.95;2.20;;;;;;;;;;5070103;28;20669;-74
2022/02/06 02:52:55;;;;;;;5.40;1.65;;;;;;;;;;5062068;28;20283;-74
2022/02/06 02:55:43;;;;;;;7.25;2.22;;;;;;;;;;5067822;28;20701;-74
2022/02/06 02:58:23;;;;;;;2.33;1.63;;;;;;;;;;5068698;28;20736;-74
2022/02/06 03:00:57;;;;;;;2.17;1.45;;;;;;;;;;5062767;28;20190;-74
2022/02/06 03:03:27;;;;;;;3.22;1.80;;;;;;;;;;5065918;28;20252;-74
2022/02/06 03:05:56;;;;;;;4.35;1.70;;;;;;;;;;5068512;28;20201;-74
2022/02/06 03:08:23;;;;;;;3.50;2.28;;;;;;;;;;5067994;28;20199;-73
2022/02/06 03:10:54;;;;;;;3.50;1.67;;;;;;;;;;5068578;28;20198;-73
2022/02/06 03:13:25;;;;;;;4.93;1.85;;;;;;;;;;5080077;28;20266;-74
2022/02/06 03:16:03;;;;;;;3.13;1.85;;;;;;;;;;5069923;28;20282;-74
2022/02/06 03:18:34;;;;;;;1.88;1.77;;;;;;;;;;5070219;28;20205;-74
2022/02/06 03:21:01;;;;;;;4.18;2.10;;;;;;;;;;5067705;28;20273;-73
2022/02/06 03:23:36;;;;;;;3.83;2.00;;;;;;;;;;5073680;28;20198;-73
2022/02/06 03:26:04;;;;;;;4.07;1.58;;;;;;;;;;5066287;28;20220;-74
2022/02/06 03:28:31;;;;;;;3.60;1.90;;;;;;;;;;5069794;28;20198;-74
2022/02/06 03:30:58;;;;;;;4.82;1.63;;;;;;;;;;5062990;28;20202;-73
2022/02/06 03:33:26;;;;;;;2.35;1.52;;;;;;;;;;5069498;28;20225;-73
2022/02/06 03:35:53;;;;;;;4.15;3.25;;;;;;;;;;5065661;28;20194;-74
2022/02/06 03:38:20;;;;;;;4.78;2.00;;;;;;;;;;5067464;28;20190;-74
2022/02/06 03:40:53;;;;;;;9.93;2.22;;;;;;;;;;5065175;28;20190;-75
2022/02/06 03:43:27;;;;;;;9.93;2.15;;;;;;;;;;5064155;28;20650;-74
2022/02/06 03:45:58;;;;;;;6.38;2.00;;;;;;;;;;5065207;28;20202;-73
2022/02/06 03:48:31;;;;;;;2.47;1.50;;;;;;;;;;5073879;28;20197;-73
2022/02/06 03:51:05;;;;;;;4.53;2.17;;;;;;;;;;5064100;28;20660;-73
2022/02/06 03:53:32;;;;;;;2.17;1.58;;;;;;;;;;5071669;28;20225;-73
2022/02/06 03:56:00;;;;;;;3.65;1.80;;;;;;;;;;5071387;28;20186;-74
2022/02/06 03:58:28;;;;;;;4.03;1.80;;;;;;;;;;5071768;28;20222;-73
2022/02/06 04:00:56;;;;;;;9.05;2.90;;;;;;;;;;5072844;28;20209;-73
2022/02/06 04:03:23;;;;;;;5.43;1.85;;;;;;;;;;5073072;28;20205;-73
2022/02/06 04:05:50;;;;;;;7.18;2.33;;;;;;;;;;5068427;28;20195;-73
2022/02/06 04:08:18;;;;;;;3.33;2.40;;;;;;;;;;5071870;28;20579;-73
2022/02/06 04:10:48;;;;;;;3.95;1.90;;;;;;;;;;5071829;28;20194;-74
2022/02/06 04:13:19;;;;;;;1.65;1.45;;;;;;;;;;5074679;28;20301;-74
2022/02/06 04:15:50;;;;;;;4.15;1.90;;;;;;;;;;5069262;28;20197;-73
2022/02/06 04:18:25;;;;;;;5.40;2.00;;;;;;;;;;5074405;28;20198;-74
2022/02/06 04:20:52;;;;;;;4.95;1.52;;;;;;;;;;5069950;28;20186;-74
2022/02/06 04:23:19;;;;;;;4.82;2.28;;;;;;;;;;5074937;28;20549;-74
2022/02/06 04:25:46;;;;;;;7.25;1.80;;;;;;;;;;5068365;28;20222;-74
2022/02/06 04:28:13;;;;;;;3.92;1.80;;;;;;;;;;5071870;28;20191;-74
2022/02/06 04:30:40;;;;;;;4.53;1.85;;;;;;;;;;5070916;28;20210;-74
2022/02/06 04:33:09;;;;;;;3.50;2.40;;;;;;;;;;5071939;28;20218;-74
2022/02/06 04:35:38;;;;;;;2.92;1.50;;;;;;;;;;5069916;28;20198;-74
2022/02/06 04:38:24;;;;;;;2.47;1.52;;;;;;;;;;5070724;28;20195;-75
2022/02/06 04:41:03;;;;;;;3.45;2.10;;;;;;;;;;5069042;28;20626;-74
2022/02/06 04:46:44;;;;;;;5.07;2.15;;;;;;;;;;5067644;28;20194;-73
2022/02/06 04:49:57;;;;;;;1.92;1.42;;;;;;;;;;5067397;28;20226;-74
2022/02/06 05:17:21;;;;;;;2.50;1.70;;;;;;;;;;5068551;28;20597;-74
2022/02/06 05:20:25;;;;;;;4.13;1.70;;;;;;;;;;5059353;28;20194;-74
2022/02/06 05:23:07;;;;;;;3.15;1.75;;;;;;;;;;5070242;28;20565;-74
2022/02/06 05:31:04;;;;;;;2.65;1.50;;;;;;;;;;5067936;28;20332;-74
2022/02/06 05:33:31;;;;;;;4.63;1.63;;;;;;;;;;5073051;28;20218;-73
2022/02/06 05:35:59;;;;;;;4.47;1.90;;;;;;;;;;5069068;28;20205;-73
2022/02/06 05:38:28;;;;;;;2.40;1.90;;;;;;;;;;5070260;28;20190;-74
2022/02/06 05:40:55;;;;;;;3.35;1.60;;;;;;;;;;5069433;28;20194;-74
2022/02/06 05:43:22;;;;;;;3.97;1.70;;;;;;;;;;5070671;28;20194;-74
2022/02/06 05:45:49;;;;;;;2.72;1.38;;;;;;;;;;5067415;28;20657;-74
2022/02/06 05:48:16;;;;;;;4.13;2.30;;;;;;;;;;5066521;28;20424;-74
2022/02/06 05:50:44;;;;;;;3.20;1.55;;;;;;;;;;5067837;28;20190;-74
2022/02/06 05:53:11;;;;;;;2.50;1.90;;;;;;;;;;5067652;28;20212;-74
2022/02/06 05:55:39;;;;;;;3.05;1.70;;;;;;;;;;5072350;28;20190;-74
2022/02/06 05:58:07;;;;;;;3.30;2.70;;;;;;;;;;5070455;28;20774;-73
2022/02/06 06:00:34;;;;;;;6.20;1.92;;;;;;;;;;5069205;28;20190;-73
2022/02/06 06:03:01;;;;;;;1.90;1.67;;;;;;;;;;5071559;28;20191;-73
2022/02/06 06:05:29;;;;;;;2.38;1.70;;;;;;;;;;5077122;28;20217;-74
2022/02/06 06:07:56;;;;;;;3.60;1.60;;;;;;;;;;5069827;28;20194;-73
2022/02/06 06:10:23;;;;;;;1.83;1.60;;;;;;;;;;5076334;28;20189;-73
2022/02/06 06:12:51;;;;;;;5.05;1.40;;;;;;;;;;5072907;28;20214;-73
2022/02/06 06:15:18;;;;;;;3.40;1.70;;;;;;;;;;5068434;28;20191;-73
2022/02/06 06:17:46;;;;;;;1.75;1.20;;;;;;;;;;5071243;28;20196;-74
2022/02/06 06:20:16;;;;;;;2.28;1.77;;;;;;;;;;5071109;28;20233;-73
2022/02/06 06:22:44;;;;;;;3.08;1.90;;;;;;;;;;5059174;28;20213;-74
2022/02/06 06:25:12;;;;;;;3.70;2.15;;;;;;;;;;5071273;28;20577;-74
2022/02/06 06:27:39;;;;;;;1.77;1.20;;;;;;;;;;5067860;28;20209;-75
2022/02/06 06:30:08;;;;;;;2.63;1.65;;;;;;;;;;5063466;28;20187;-74
2022/02/06 06:32:35;;;;;;;3.20;1.30;;;;;;;;;;5066461;28;20221;-74
2022/02/06 06:35:03;;;;;;;4.75;1.70;;;;;;;;;;5074044;28;20187;-75
2022/02/06 06:37:31;;;;;;;2.70;1.55;;;;;;;;;;5054813;28;20195;-75
2022/02/06 06:39:58;;;;;;;1.58;1.40;;;;;;;;;;5065173;28;20193;-73
2022/02/06 06:42:25;;;;;;;5.88;1.45;;;;;;;;;;5069125;28;20197;-73
2022/02/06 06:44:52;;;;;;;3.15;1.65;;;;;;;;;;5065615;28;20191;-73
2022/02/06 06:47:20;;;;;;;4.07;1.95;;;;;;;;;;5070418;28;20198;-73
2022/02/06 06:49:48;;;;;;;6.20;1.67;;;;;;;;;;5068107;28;20198;-73
2022/02/06 06:52:16;;;;;;;4.50;2.58;;;;;;;;;;5069316;28;20190;-73
2022/02/06 06:54:46;;;;;;;1.60;1.40;;;;;;;;;;5070770;28;20210;-73
2022/02/06 06:57:19;;;;;;;4.15;1.48;;;;;;;;;;5057901;28;20194;-73
2022/02/06 07:02:29;;;;;;;3.13;1.48;;;;;;;;;;5030599;28;20201;-73
2022/02/06 07:04:57;;;;;;;5.10;1.50;;;;;;;;;;5063340;28;20198;-73
2022/02/06 07:07:24;;;;;;;4.28;1.77;;;;;;;;;;5063296;28;20684;-73
2022/02/06 07:09:52;;;;;;;2.15;1.30;;;;;;;;;;5069641;28;20217;-73
2022/02/06 07:12:19;;;;;;;1.83;1.63;;;;;;;;;;5071283;28;20190;-73
2022/02/06 07:14:46;;;;;;;1.98;1.52;;;;;;;;;;5068226;28;20225;-73
2022/02/06 07:17:13;;;;;;;1.33;1.23;;;;;;;;;;5069885;28;20195;-73
2022/02/06 07:19:43;;;;;;;3.13;1.42;;;;;;;;;;5069855;28;20194;-73
2022/02/06 07:22:13;;;;;;;2.30;1.40;;;;;;;;;;5056040;28;20653;-73
2022/02/06 07:24:40;;;;;;;3.38;1.65;;;;;;;;;;5082121;28;20213;-73
2022/02/06 07:27:18;;;;;;;2.25;1.27;;;;;;;;;;5069283;28;20202;-73
2022/02/06 07:29:46;;;;;;;1.88;1.25;;;;;;;;;;5063085;28;20199;-72
2022/02/06 07:32:13;;;;;;;2.00;1.65;;;;;;;;;;5064050;28;20281;-73
2022/02/06 07:34:40;;;;;;;3.45;1.48;;;;;;;;;;5070360;28;20217;-72
2022/02/06 07:37:08;;;;;;;5.07;1.60;;;;;;;;;;5058913;28;20197;-72
2022/02/06 07:39:35;;;;;;;2.78;1.52;;;;;;;;;;5068168;28;20221;-73
2022/02/06 07:42:03;;;;;;;3.55;1.80;;;;;;;;;;5070178;28;20194;-73
2022/02/06 07:44:30;;;;;;;1.83;1.60;;;;;;;;;;5069058;28;20201;-73
2022/02/06 07:47:06;;;;;;;1.98;1.35;;;;;;;;;;5062670;28;20255;-73
2022/02/06 07:49:35;;;;;;;3.65;1.40;;;;;;;;;;5063184;28;20236;-72
2022/02/06 07:52:02;;;;;;;1.85;1.65;;;;;;;;;;5063623;28;20194;-74
2022/02/06 07:54:32;;;;;;;2.35;1.30;;;;;;;;;;5069747;28;20245;-73
2022/02/06 07:56:59;;;;;;;2.53;1.27;;;;;;;;;;5067636;28;20209;-73
2022/02/06 07:59:26;;;;;;;2.95;1.60;;;;;;;;;;5067856;28;20584;-73
2022/02/06 08:01:53;;;;;;;1.95;1.20;;;;;;;;;;5066546;28;20196;-73
2022/02/06 08:04:20;;;;;;;2.17;1.25;;;;;;;;;;5068469;28;20198;-74
2022/02/06 08:06:47;;;;;;;5.10;1.90;;;;;;;;;;5059499;28;20200;-73
2022/02/06 08:09:14;;;;;;;7.80;1.33;;;;;;;;;;5068066;28;20221;-74
2022/02/06 08:11:46;;;;;;;3.25;1.52;;;;;;;;;;5065512;28;20972;-73
2022/02/06 08:14:49;;;;;;;1.50;1.10;;;;;;;;;;5069981;28;20275;-74
2022/02/06 08:17:01;;;;;;;1.90;1.55;;;;;;;;;;5066817;28;20244;-74
2022/02/06 08:19:28;;;;;;;3.97;1.60;;;;;;;;;;5060332;28;20559;-74
2022/02/06 08:21:56;;;;;;;2.95;1.65;;;;;;;;;;5041883;28;20195;-74
2022/02/06 08:24:23;;;;;;;2.88;1.70;;;;;;;;;;5049717;28;20199;-74
2022/02/06 08:26:51;;;;;;;4.30;2.13;;;;;;;;;;5048518;28;20211;-74
2022/02/06 08:29:18;;;;;;;2.60;1.80;;;;;;;;;;5042630;28;20191;-73
2022/02/06 08:31:45;;;;;;;4.95;2.00;;;;;;;;;;5050462;28;20199;-74
2022/02/06 08:34:12;;;;;;;7.03;2.42;;;;;;;;;;5049953;28;20528;-73
2022/02/06 08:36:40;;;;;;;2.33;1.70;;;;;;;;;;5048252;28;20204;-74
2022/02/06 08:39:07;;;;;;;2.22;1.98;;;;;;;;;;5053647;28;20209;-75
2022/02/06 08:41:34;;;;;;;3.08;1.60;;;;;;;;;;5052634;28;20205;-74
2022/02/06 08:44:03;;;;;;;2.90;1.65;;;;;;;;;;5050499;28;20206;-73
2022/02/06 08:46:31;;;;;;;2.58;1.70;;;;;;;;;;5049060;28;20573;-73
2022/02/06 08:48:58;;;;;;;1.83;1.55;;;;;;;;;;5051132;28;20202;-73
2022/02/06 08:51:25;;;;;;;3.92;1.35;;;;;;;;;;5045044;28;20289;-73
2022/02/06 08:53:53;;;;;;;2.58;1.42;;;;;;;;;;5052833;28;20261;-73
2022/02/06 08:56:20;;;;;;;2.28;1.73;;;;;;;;;;5052276;28;20653;-72
2022/02/06 08:58:47;;;;;;;2.35;1.50;;;;;;;;;;5046703;28;20205;-72
2022/02/06 09:01:16;;;;;;;3.65;1.52;;;;;;;;;;5047039;28;20206;-72
2022/02/06 09:03:43;;;;;;;2.72;1.55;;;;;;;;;;5050681;28;20196;-73
2022/02/06 09:06:11;;;;;;;1.90;1.40;;;;;;;;;;5039097;28;20196;-72
2022/02/06 09:08:39;;;;;;;5.88;1.65;;;;;;;;;;5051341;28;20205;-72
2022/02/06 09:11:06;;;;;;;1.50;1.20;;;;;;;;;;5045917;28;20195;-73
2022/02/06 09:13:33;;;;;;;2.95;1.30;;;;;;;;;;5042786;28;20219;-72
2022/02/06 09:16:00;;;;;;;1.75;1.30;;;;;;;;;;5049571;28;20202;-72
2022/02/06 09:18:31;;;;;;;1.30;1.08;;;;;;;;;;5050666;28;20191;-72
2022/02/06 09:20:59;;;;;;;3.17;1.35;;;;;;;;;;5034859;28;20279;-72
2022/02/06 09:23:26;;;;;;;2.22;1.45;;;;;;;;;;5051568;28;20213;-72
2022/02/06 09:25:53;;;;;;;2.15;1.65;;;;;;;;;;5049818;28;20221;-73
2022/02/06 09:28:20;;;;;;;2.13;1.10;;;;;;;;;;5048306;28;20201;-72
2022/02/06 09:30:47;;;;;;;2.83;0.90;;;;;;;;;;5047628;28;20199;-72
2022/02/06 09:35:41;;;;;;;2.47;1.10;;;;;;;;;;5040307;28;20289;-72
2022/02/06 09:38:08;;;;;;;2.85;1.10;;;;;;;;;;5038866;28;20621;-72
2022/02/06 09:40:37;;;;;;;2.83;1.27;;;;;;;;;;5048791;28;20210;-72
2022/02/06 09:43:05;;;;;;;1.92;1.15;;;;;;;;;;5050094;28;20194;-72
2022/02/06 09:45:37;;;;;;;2.03;1.20;;;;;;;;;;5045805;28;20195;-72
2022/02/06 09:48:05;;;;;;;1.65;1.00;;;;;;;;;;5050821;28;20260;-72
2022/02/06 09:50:32;;;;;;;1.15;0.93;;;;;;;;;;5048917;28;20204;-72
2022/02/06 09:53:00;;;;;;;2.45;1.02;;;;;;;;;;5033210;28;20191;-72
2022/02/06 09:55:28;;;;;;;2.15;1.10;;;;;;;;;;5051538;28;20214;-72
2022/02/06 09:57:59;;;;;;;1.27;1.00;;;;;;;;;;5046375;28;20187;-72
2022/02/06 10:00:29;;;;;;;1.67;1.10;;;;;;;;;;5040175;28;20195;-72
2022/02/06 10:03:02;;;;;;;1.17;0.95;;;;;;;;;;5045031;28;20281;-72
2022/02/06 10:05:33;;;;;;;1.40;1.00;;;;;;;;;;5044993;28;20836;-72
2022/02/06 10:08:11;;;;;;;2.50;1.27;;;;;;;;;;5046206;28;20191;-72
2022/02/06 10:10:39;;;;;;;2.65;1.05;;;;;;;;;;5047953;28;20207;-72
2022/02/06 10:13:06;;;;;;;2.13;1.52;;;;;;;;;;5048814;28;20203;-73
2022/02/06 10:15:33;;;;;;;2.45;1.00;;;;;;;;;;5043967;28;20585;-72
2022/02/06 10:18:01;;;;;;;2.03;1.15;;;;;;;;;;5037719;28;20196;-72
2022/02/06 10:20:32;;;;;;;1.80;1.30;;;;;;;;;;5048838;28;20281;-73
2022/02/06 10:23:02;;;;;;;1.35;1.00;;;;;;;;;;5050217;28;20198;-72
2022/02/06 10:25:31;;;;;;;2.40;1.30;;;;;;;;;;5042110;28;20233;-72
2022/02/06 10:28:02;;;;;;;1.52;0.90;;;;;;;;;;5051080;28;20205;-72
2022/02/06 10:30:39;;;;;;;2.50;0.90;;;;;;;;;;5044269;28;20199;-72
2022/02/06 10:33:08;;;;;;;1.10;0.80;;;;;;;;;;5046789;28;20201;-72
2022/02/06 10:35:35;;;;;;;2.38;1.13;;;;;;;;;;5049101;28;20215;-72
2022/02/06 10:38:04;;;;;;;1.17;0.90;;;;;;;;;;5050558;28;20190;-72
2022/02/06 10:40:32;;;;;;;1.42;0.90;;;;;;;;;;5049973;28;20468;-73
2022/02/06 10:42:59;;;;;;;1.45;0.80;;;;;;;;;;5048038;28;20187;-73
2022/02/06 10:45:26;;;;;;;2.53;1.20;;;;;;;;;;5039975;28;20555;-72
2022/02/06 10:47:54;;;;;;;1.30;1.05;;;;;;;;;;5042874;28;20198;-72
2022/02/06 10:50:24;;;;;;;1.08;0.82;;;;;;;;;;5049845;28;20194;-73
2022/02/06 10:52:51;;;;;;;0.93;0.80;;;;;;;;;;5039993;28;20190;-75
2022/02/06 10:55:20;;;;;;;2.15;1.10;;;;;;;;;;5053585;28;20216;-73
2022/02/06 10:57:58;;;;;;;1.40;1.10;;;;;;;;;;5046231;28;20653;-74
2022/02/06 11:00:29;;;;;;;1.50;0.90;;;;;;;;;;5046828;28;20195;-74
2022/02/06 11:03:03;;;;;;;1.00;0.80;;;;;;;;;;5044348;28;20195;-81
2022/02/06 11:05:46;;;;;;;1.73;1.00;;;;;;;;;;5040852;28;20206;-74
2022/02/06 11:08:13;;;;;;;0.98;0.80;;;;;;;;;;5043584;28;20569;-73
2022/02/06 11:10:45;;;;;;;0.90;0.60;;;;;;;;;;5049111;28;20226;-74
2022/02/06 11:13:17;;;;;;;1.75;0.80;;;;;;;;;;5045587;28;20202;-73
2022/02/06 11:15:46;;;;;;;1.00;0.90;;;;;;;;;;5037530;28;20314;-73
2022/02/06 11:18:17;;;;;;;1.02;0.88;;;;;;;;;;5040013;28;20195;-74
2022/02/06 11:20:54;;;;;;;1.40;0.95;;;;;;;;;;5041132;28;20206;-73
2022/02/06 11:23:21;;;;;;;2.00;0.88;;;;;;;;;;5038212;28;20771;-73
2022/02/06 11:25:49;;;;;;;1.10;0.95;;;;;;;;;;5040108;28;20230;-73
2022/02/06 11:28:18;;;;;;;0.90;0.80;;;;;;;;;;5047659;28;20206;-74
2022/02/06 11:30:45;;;;;;;1.20;0.80;;;;;;;;;;5044506;28;20199;-73
2022/02/06 11:33:12;;;;;;;1.60;1.00;;;;;;;;;;5038228;28;20194;-73
2022/02/06 11:35:41;;;;;;;1.00;0.82;;;;;;;;;;5040758;28;20227;-73
2022/02/06 11:44:15;;;;;;;2.13;0.80;;;;;;;;;;5000987;28;20204;-73
2022/02/06 11:46:46;;;;;;;0.80;0.70;;;;;;;;;;5005456;28;20218;-74
2022/02/06 11:49:15;;;;;;;1.15;0.85;;;;;;;;;;5016833;28;20322;-73
2022/02/06 11:51:50;;;;;;;1.95;0.90;;;;;;;;;;5038376;28;20479;-74
2022/02/06 11:54:31;;;;;;;1.67;0.95;;;;;;;;;;5040463;28;20719;-73
2022/02/06 11:57:19;;;;;;;1.00;0.90;;;;;;;;;;5046499;28;20668;-73
2022/02/06 12:00:01;;;;;;;1.10;0.90;;;;;;;;;;5039583;28;20200;-74
2022/02/06 12:02:30;;;;;;;0.95;0.80;;;;;;;;;;5040653;28;20190;-74
2022/02/06 12:05:12;;;;;;;0.82;0.70;;;;;;;;;;5041997;28;20211;-73
2022/02/06 12:08:04;;;;;;;1.10;0.85;;;;;;;;;;5046921;28;20508;-74
2022/02/06 12:10:50;;;;;;;1.90;0.80;;;;;;;;;;5047511;28;20259;-73
2022/02/06 12:13:27;;;;;;;1.00;0.85;;;;;;;;;;5054575;28;20201;-73
2022/02/06 12:15:57;;;;;;;0.90;0.80;;;;;;;;;;5047393;28;20279;-73
2022/02/06 12:18:26;;;;;;;0.90;0.70;;;;;;;;;;5047658;28;20194;-73
2022/02/06 12:20:55;;;;;;;0.90;0.77;;;;;;;;;;5042767;28;20594;-73
2022/02/06 12:23:35;;;;;;;0.90;0.80;;;;;;;;;;5047377;28;20187;-73
2022/02/06 12:26:03;;;;;;;2.20;0.80;;;;;;;;;;5043346;28;20643;-74
2022/02/06 12:28:32;;;;;;;1.80;0.80;;;;;;;;;;5049501;28;20468;-74
2022/02/06 12:31:14;;;;;;;1.20;1.10;;;;;;;;;;5043639;28;20211;-74
2022/02/06 12:33:50;;;;;;;1.00;0.90;;;;;;;;;;5046653;28;20202;-74
2022/02/06 12:39:16;;;;;;;1.05;0.88;;;;;;;;;;5045491;28;20206;-74
2022/02/06 12:41:45;;;;;;;1.10;1.00;;;;;;;;;;5048295;28;20199;-74
2022/02/06 12:44:15;;;;;;;1.40;0.80;;;;;;;;;;5047299;28;20322;-73
2022/02/06 12:46:42;;;;;;;0.90;0.70;;;;;;;;;;5039535;28;20221;-73
2022/02/06 12:49:11;;;;;;;0.90;0.70;;;;;;;;;;5049233;28;20282;-74
2022/02/06 12:51:38;;;;;;;1.00;0.80;;;;;;;;;;5045651;28;20211;-73
2022/02/06 12:54:06;;;;;;;1.23;0.73;;;;;;;;;;5049241;28;20549;-73
2022/02/06 12:56:34;;;;;;;0.93;0.70;;;;;;;;;;5048380;28;20483;-74
2022/02/06 12:59:01;;;;;;;1.13;0.80;;;;;;;;;;5049571;28;20195;-74
2022/02/06 13:01:37;;;;;;;1.90;0.70;;;;;;;;;;5040802;28;20668;-74
2022/02/06 13:04:05;;;;;;;1.00;0.82;;;;;;;;;;5042254;28;20198;-74
2022/02/06 13:06:36;;;;;;;0.95;0.80;;;;;;;;;;5039295;28;20207;-73
2022/02/06 13:09:06;;;;;;;1.00;0.90;;;;;;;;;;5048467;28;20198;-74
2022/02/06 13:11:42;;;;;;;0.90;0.80;;;;;;;;;;5048319;28;20187;-74
2022/02/06 13:14:17;;;;;;;1.30;0.80;;;;;;;;;;5042162;28;20194;-74
2022/02/06 13:16:51;;;;;;;3.92;0.80;;;;;;;;;;5040346;28;20202;-73
2022/02/06 13:19:36;;;;;;;1.20;0.80;;;;;;;;;;5044014;28;20297;-73
2022/02/06 13:22:24;;;;;;;1.13;0.77;;;;;;;;;;5038840;28;20221;-73
2022/02/06 13:25:09;;;;;;;1.20;1.00;;;;;;;;;;5048493;28;20572;-73
2022/02/06 13:28:00;;;;;;;1.25;0.93;;;;;;;;;;5049772;28;20206;-73
2022/02/06 13:31:02;;;;;;;1.40;0.90;;;;;;;;;;5047178;28;20195;-73
2022/02/06 13:33:42;;;;;;;0.80;0.70;;;;;;;;;;5045060;28;20580;-74
2022/02/06 13:36:20;;;;;;;1.25;0.90;;;;;;;;;;5042071;28;20576;-74
2022/02/06 13:38:52;;;;;;;1.33;0.90;;;;;;;;;;5041621;28;20209;-74
2022/02/06 13:41:23;;;;;;;1.00;0.80;;;;;;;;;;5045594;28;20844;-74
2022/02/06 13:43:53;;;;;;;0.90;0.70;;;;;;;;;;5041795;28;20203;-73
2022/02/06 13:46:22;;;;;;;1.10;0.70;;;;;;;;;;5045575;28;20231;-73
2022/02/06 13:48:50;;;;;;;1.00;0.80;;;;;;;;;;5049390;28;20593;-73
2022/02/06 13:51:17;;;;;;;1.38;0.80;;;;;;;;;;5041590;28;20199;-74
2022/02/06 13:53:55;;;;;;;1.00;0.90;;;;;;;;;;5044620;28;20729;-74
2022/02/06 13:56:22;;;;;;;1.50;0.93;;;;;;;;;;5044895;28;20329;-74
2022/02/06 13:59:00;;;;;;;1.30;1.00;;;;;;;;;;5039727;28;20206;-74
2022/02/06 14:01:38;;;;;;;0.90;0.70;;;;;;;;;;5042698;28;20198;-74
2022/02/06 14:04:06;;;;;;;1.42;0.82;;;;;;;;;;5042001;28;20233;-73
2022/02/06 14:06:39;;;;;;;0.90;0.80;;;;;;;;;;5040285;28;20293;-74
2022/02/06 14:09:14;;;;;;;0.90;0.70;;;;;;;;;;5040212;28;20558;-73
2022/02/06 14:11:56;;;;;;;0.80;0.65;;;;;;;;;;5043668;28;20199;-73
2022/02/06 14:14:24;;;;;;;1.00;0.90;;;;;;;;;;5048307;28;20199;-75
2022/02/06 14:16:53;;;;;;;1.00;0.70;;;;;;;;;;5047130;28;20589;-74
2022/02/06 14:19:34;;;;;;;1.00;0.80;;;;;;;;;;5043755;28;20195;-74
2022/02/06 14:22:01;;;;;;;1.05;0.85;;;;;;;;;;5046731;28;20198;-73
2022/02/06 14:24:30;;;;;;;1.20;1.00;;;;;;;;;;5044036;28;20231;-73
2022/02/06 14:27:01;;;;;;;1.75;0.75;;;;;;;;;;5042896;28;20207;-74
2022/02/06 14:29:28;;;;;;;1.02;0.80;;;;;;;;;;5047586;28;20732;-74
2022/02/06 14:32:08;;;;;;;1.30;0.90;;;;;;;;;;5045377;28;20202;-74
2022/02/06 14:34:35;;;;;;;0.90;0.77;;;;;;;;;;5043839;28;20206;-74
2022/02/06 14:37:11;;;;;;;1.45;0.90;;;;;;;;;;5043552;28;20187;-74
2022/02/06 14:39:54;;;;;;;0.90;0.80;;;;;;;;;;5050557;28;20198;-74
2022/02/06 14:42:23;;;;;;;0.95;0.60;;;;;;;;;;5036077;28;20192;-74
2022/02/06 14:44:50;;;;;;;0.90;0.70;;;;;;;;;;5033356;28;20241;-74
2022/02/06 14:47:17;;;;;;;0.90;0.80;;;;;;;;;;5038192;28;20202;-74
2022/02/06 14:49:44;;;;;;;0.90;0.80;;;;;;;;;;5062041;28;20741;-74
2022/02/06 14:52:11;;;;;;;1.48;0.75;;;;;;;;;;5035074;28;20678;-74
2022/02/06 14:54:43;;;;;;;0.95;0.80;;;;;;;;;;5041958;28;20577;-73
2022/02/06 14:57:11;;;;;;;1.10;0.77;;;;;;;;;;5043458;28;20292;-73
2022/02/06 14:59:39;;;;;;;1.00;0.75;;;;;;;;;;5059503;28;20198;-74
2022/02/06 15:02:08;;;;;;;0.90;0.80;;;;;;;;;;5036191;28;20191;-75
2022/02/06 15:04:35;;;;;;;1.90;0.90;;;;;;;;;;5035782;28;20282;-73
2022/02/06 15:07:02;;;;;;;1.80;0.90;;;;;;;;;;5041882;28;20199;-73
2022/02/06 15:09:29;;;;;;;1.10;0.80;;;;;;;;;;5046000;28;20209;-76
2022/02/06 15:11:57;;;;;;;2.00;0.80;;;;;;;;;;5039296;28;20191;-74
2022/02/06 15:14:25;;;;;;;1.40;1.08;;;;;;;;;;5044784;28;20210;-74
2022/02/06 15:16:57;;;;;;;1.08;0.90;;;;;;;;;;5040671;28;20310;-74
2022/02/06 15:19:30;;;;;;;1.20;1.00;;;;;;;;;;5045276;28;20195;-74
2022/02/06 15:21:57;;;;;;;1.10;0.90;;;;;;;;;;5035511;28;20199;-75
2022/02/06 15:24:24;;;;;;;1.30;0.90;;;;;;;;;;5044940;28;20264;-74
2022/02/06 15:26:52;;;;;;;1.20;0.90;;;;;;;;;;5039645;28;20203;-73
2022/02/06 15:29:19;;;;;;;1.90;0.90;;;;;;;;;;5041500;28;20198;-74
2022/02/06 15:31:47;;;;;;;2.40;1.20;;;;;;;;;;5040344;28;20198;-74
2022/02/06 15:34:15;;;;;;;3.38;1.10;;;;;;;;;;5041876;28;20194;-74
2022/02/06 15:36:49;;;;;;;1.67;1.08;;;;;;;;;;5040020;28;20596;-75
2022/02/06 15:39:22;;;;;;;2.28;1.25;;;;;;;;;;5043523;28;20199;-75
2022/02/06 15:41:52;;;;;;;2.03;1.58;;;;;;;;;;5041825;28;20216;-75
2022/02/06 15:44:19;;;;;;;1.80;1.60;;;;;;;;;;5039082;28;20199;-76
2022/02/06 15:46:46;;;;;;;3.08;1.52;;;;;;;;;;5038271;28;20207;-75
2022/02/06 15:49:13;;;;;;;2.47;1.50;;;;;;;;;;5036041;28;20202;-76
2022/02/06 15:51:42;;;;;;;2.00;1.55;;;;;;;;;;5041047;28;20210;-76
2022/02/06 15:54:09;;;;;;;2.90;1.25;;;;;;;;;;5047074;28;20203;-75
2022/02/06 15:56:36;;;;;;;2.22;1.50;;;;;;;;;;5046904;28;20222;-76
2022/02/06 15:59:03;;;;;;;1.90;1.42;;;;;;;;;;5043787;28;20211;-76
2022/02/06 16:01:30;;;;;;;1.65;1.20;;;;;;;;;;5039198;28;20199;-75
2022/02/06 16:03:58;;;;;;;2.75;1.58;;;;;;;;;;5047668;28;20197;-76
2022/02/06 16:06:25;;;;;;;4.25;1.85;;;;;;;;;;5041658;28;20196;-75
2022/02/06 16:08:53;;;;;;;1.80;1.70;;;;;;;;;;5044526;28;20566;-75
2022/02/06 16:11:20;;;;;;;1.55;1.45;;;;;;;;;;5041884;28;20206;-75
2022/02/06 16:13:47;;;;;;;1.85;1.75;;;;;;;;;;5044551;28;20666;-74
2022/02/06 16:16:14;;;;;;;2.80;1.80;;;;;;;;;;5032113;28;20697;-75
2022/02/06 16:18:41;;;;;;;2.22;1.50;;;;;;;;;;5031277;28;20490;-74
2022/02/06 16:21:09;;;;;;;3.28;1.70;;;;;;;;;;5028779;28;20618;-75
2022/02/06 16:23:36;;;;;;;7.30;2.08;;;;;;;;;;5043097;28;20211;-76
2022/02/06 16:26:04;;;;;;;2.17;1.40;;;;;;;;;;5041910;28;20226;-75
2022/02/06 16:28:32;;;;;;;1.80;1.52;;;;;;;;;;5042571;28;20549;-75
2022/02/06 16:30:59;;;;;;;3.08;2.08;;;;;;;;;;5038689;28;20199;-74
2022/02/06 16:33:26;;;;;;;3.22;1.80;;;;;;;;;;5057614;28;20225;-75
2022/02/06 16:35:53;;;;;;;3.08;1.40;;;;;;;;;;5042570;28;20218;-74